Time;durP1;ratioP1;P1;durP2;ratioP2;P2;SDS_P1;SDS_P2;PMS_P1;PMS_P2;Temp;Humidity;BMP_temperature;BMP_pressure;BME280_temperature;BME280_humidity;BME280_pressure;Samples;Min_cycle;Max_cycle;Signal;HPM_P1;HPM_P2
2022/07/05 00:02:42;;;;;;;1.65;0.30;;;;;;;17.18;100.00;98634.06;15277624;19;20019;-59
2022/07/05 00:07:47;;;;;;;2.03;0.30;;;;;;;17.13;100.00;98631.09;15267750;19;20058;-54
2022/07/05 00:12:55;;;;;;;1.33;0.32;;;;;;;17.10;100.00;98626.06;15275466;19;20085;-59
2022/07/05 00:18:00;;;;;;;2.10;0.30;;;;;;;17.03;100.00;98636.91;15275313;19;20010;-59
2022/07/05 00:23:05;;;;;;;1.08;0.40;;;;;;;16.98;100.00;98638.53;15276289;19;20027;-57
2022/07/05 00:28:13;;;;;;;1.58;0.60;;;;;;;16.91;100.00;98633.84;15271774;19;20927;-55
2022/07/05 00:33:19;;;;;;;1.67;0.43;;;;;;;16.86;100.00;98625.44;15264612;19;20133;-59
2022/07/05 00:38:24;;;;;;;1.95;0.40;;;;;;;16.71;100.00;98628.22;15265924;19;20096;-55
2022/07/05 00:43:32;;;;;;;3.15;0.38;;;;;;;16.52;100.00;98631.63;15273704;19;20046;-59
2022/07/05 00:48:37;;;;;;;1.58;0.40;;;;;;;16.37;100.00;98629.78;15271173;19;20042;-57
2022/07/05 00:53:43;;;;;;;0.90;0.43;;;;;;;16.29;100.00;98625.31;15273105;19;20355;-60
2022/07/05 00:58:51;;;;;;;5.63;0.50;;;;;;;16.28;100.00;98626.38;15271685;19;20492;-60
2022/07/05 01:03:57;;;;;;;1.10;0.40;;;;;;;16.30;100.00;98631.63;15267204;19;20018;-57
2022/07/05 01:09:02;;;;;;;0.77;0.30;;;;;;;16.26;100.00;98630.31;15264960;19;20401;-56
2022/07/05 01:14:12;;;;;;;0.88;0.38;;;;;;;16.14;100.00;98632.72;15271325;19;20022;-58
2022/07/05 01:19:18;;;;;;;1.35;0.50;;;;;;;16.02;100.00;98627.78;15271239;19;20495;-56
2022/07/05 01:24:25;;;;;;;0.90;0.40;;;;;;;15.92;100.00;98635.38;15288702;19;20029;-58
2022/07/05 01:29:31;;;;;;;2.67;0.40;;;;;;;15.84;100.00;98633.63;15279738;19;20018;-56
2022/07/05 01:34:39;;;;;;;2.47;0.60;;;;;;;15.81;100.00;98627.69;15274586;19;20010;-54
2022/07/05 01:39:48;;;;;;;0.80;0.45;;;;;;;15.76;100.00;98630.13;15292020;19;20011;-56
2022/07/05 01:44:54;;;;;;;0.93;0.40;;;;;;;15.66;100.00;98625.84;15030829;19;5001600;-56
2022/07/05 01:50:02;;;;;;;0.88;0.45;;;;;;;15.56;100.00;98630.72;15290422;19;20010;-54
2022/07/05 01:55:10;;;;;;;0.90;0.43;;;;;;;15.45;100.00;98629.31;15288063;19;20011;-55
2022/07/05 02:00:16;;;;;;;3.42;0.50;;;;;;;15.34;100.00;98627.94;15288720;19;20412;-59
2022/07/05 02:05:22;;;;;;;0.75;0.30;;;;;;;15.29;100.00;98621.38;15288110;19;20026;-56
2022/07/05 02:10:30;;;;;;;1.58;0.50;;;;;;;15.23;100.00;98621.06;15281451;19;20046;-59
2022/07/05 02:15:38;;;;;;;0.63;0.30;;;;;;;15.13;100.00;98620.50;15278255;19;20015;-57
2022/07/05 02:20:44;;;;;;;1.02;0.50;;;;;;;15.03;100.00;98623.50;15287975;19;20007;-55
2022/07/05 02:25:53;;;;;;;1.42;0.45;;;;;;;14.98;100.00;98628.66;15286475;19;20021;-58
2022/07/05 02:30:58;;;;;;;1.60;0.30;;;;;;;14.87;100.00;98619.06;15287919;19;20019;-56
2022/07/05 02:36:09;;;;;;;0.77;0.35;;;;;;;14.84;100.00;98626.75;15282492;19;20014;-56
2022/07/05 02:41:17;;;;;;;1.10;0.35;;;;;;;14.75;100.00;98626.81;15284288;19;20034;-55
2022/07/05 02:46:26;;;;;;;0.85;0.50;;;;;;;14.69;100.00;98619.41;15283638;19;20022;-56
2022/07/05 02:51:33;;;;;;;4.28;0.63;;;;;;;14.62;100.00;98632.81;15288526;19;20144;-54
2022/07/05 02:56:42;;;;;;;0.77;0.50;;;;;;;14.57;100.00;98631.69;15285809;19;20019;-57
2022/07/05 03:01:51;;;;;;;1.10;0.50;;;;;;;14.52;100.00;98634.94;15284180;19;20031;-56
2022/07/05 03:06:56;;;;;;;1.23;0.50;;;;;;;14.45;100.00;98632.09;15287009;19;20031;-56
2022/07/05 03:12:09;;;;;;;0.93;0.45;;;;;;;14.41;100.00;98638.06;15284380;19;20482;-53
2022/07/05 03:17:15;;;;;;;0.95;0.50;;;;;;;14.35;100.00;98645.06;15285079;19;20364;-55
2022/07/05 03:22:21;;;;;;;1.13;0.50;;;;;;;14.28;100.00;98650.34;15286478;19;20063;-57
2022/07/05 03:27:29;;;;;;;1.60;0.50;;;;;;;14.24;100.00;98656.31;15285241;19;20007;-57
2022/07/05 03:32:36;;;;;;;1.42;0.70;;;;;;;14.16;100.00;98668.91;15284628;19;20039;-53
2022/07/05 03:37:44;;;;;;;1.98;0.60;;;;;;;14.11;100.00;98681.28;15284657;19;20507;-53
2022/07/05 03:42:52;;;;;;;2.05;0.50;;;;;;;13.97;100.00;98686.44;15278156;19;20014;-53
2022/07/05 03:48:00;;;;;;;1.80;0.55;;;;;;;13.86;100.00;98695.78;15282936;19;20022;-53
2022/07/05 03:53:27;;;;;;;1.45;0.40;;;;;;;13.83;100.00;98690.72;15279937;19;20039;-57
2022/07/05 03:58:35;;;;;;;1.83;0.60;;;;;;;13.82;100.00;98693.59;15281194;19;20028;-57
2022/07/05 04:03:41;;;;;;;1.00;0.45;;;;;;;13.73;100.00;98690.09;15284810;19;20015;-59
2022/07/05 04:08:50;;;;;;;3.15;0.50;;;;;;;13.72;100.00;98693.81;15280919;19;20018;-57
2022/07/05 04:13:59;;;;;;;0.88;0.60;;;;;;;13.70;100.00;98695.88;15281288;19;20039;-53
2022/07/05 04:19:05;;;;;;;1.30;0.50;;;;;;;13.71;100.00;98702.94;15278732;19;20350;-56
2022/07/05 04:24:13;;;;;;;1.10;0.50;;;;;;;13.74;100.00;98712.59;15281028;19;20046;-52
2022/07/05 04:29:22;;;;;;;1.80;0.70;;;;;;;13.76;100.00;98716.00;15282280;19;20013;-52
2022/07/05 04:34:27;;;;;;;1.13;0.50;;;;;;;13.78;100.00;98709.38;15282521;19;20474;-53
2022/07/05 04:39:32;;;;;;;3.92;0.68;;;;;;;13.84;100.00;98710.53;15280398;19;20365;-59
2022/07/05 04:44:45;;;;;;;0.50;0.50;;;;;;;13.91;100.00;98721.50;15281620;19;20015;-56
2022/07/05 04:49:52;;;;;;;1.58;0.60;;;;;;;14.00;100.00;98726.69;15279351;19;20557;-55
2022/07/05 04:54:58;;;;;;;0.77;0.50;;;;;;;14.10;100.00;98723.78;15281960;19;20011;-55
2022/07/05 05:00:06;;;;;;;1.85;0.50;;;;;;;14.20;100.00;98722.72;15298944;19;20476;-59
2022/07/05 05:05:11;;;;;;;1.20;0.60;;;;;;;14.29;100.00;98729.78;15298368;19;20014;-53
2022/07/05 05:10:16;;;;;;;2.55;0.55;;;;;;;14.36;100.00;98728.06;15299577;19;20118;-54
2022/07/05 05:15:24;;;;;;;3.22;0.52;;;;;;;14.43;100.00;98729.03;15293887;19;20050;-52
2022/07/05 05:20:29;;;;;;;2.53;0.60;;;;;;;14.54;100.00;98733.22;15295326;19;20035;-52
2022/07/05 05:25:35;;;;;;;1.08;0.50;;;;;;;14.62;100.00;98732.31;15295950;19;20499;-53
2022/07/05 05:30:43;;;;;;;1.65;0.63;;;;;;;14.71;100.00;98733.97;15295670;19;20022;-53
2022/07/05 05:35:48;;;;;;;1.45;0.52;;;;;;;14.81;100.00;98736.44;15292439;19;20557;-54
2022/07/05 05:40:53;;;;;;;1.05;0.50;;;;;;;14.94;100.00;98743.97;15296651;19;20389;-61
2022/07/05 05:46:01;;;;;;;2.35;0.50;;;;;;;15.09;100.00;98747.59;15290674;19;20018;-54
2022/07/05 05:51:06;;;;;;;5.00;0.60;;;;;;;15.22;100.00;98743.41;15289661;19;20042;-55
2022/07/05 05:56:11;;;;;;;1.48;0.50;;;;;;;15.39;100.00;98747.66;15282611;19;20027;-52
2022/07/05 06:01:19;;;;;;;1.85;0.55;;;;;;;15.60;100.00;98762.38;15285900;19;20015;-57
2022/07/05 06:06:24;;;;;;;2.78;0.60;;;;;;;15.77;100.00;98763.03;15286916;19;20011;-57
2022/07/05 06:11:30;;;;;;;1.00;0.50;;;;;;;15.97;100.00;98757.94;15288640;19;20031;-54
2022/07/05 06:16:37;;;;;;;2.08;0.60;;;;;;;16.19;100.00;98766.16;15284175;19;20421;-59
2022/07/05 06:21:42;;;;;;;1.13;0.60;;;;;;;16.31;100.00;98770.06;15289280;19;20033;-52
2022/07/05 06:26:48;;;;;;;1.00;0.55;;;;;;;16.50;100.00;98778.69;15280004;19;20039;-55
2022/07/05 06:31:55;;;;;;;1.35;0.63;;;;;;;16.73;100.00;98777.69;15284642;19;20053;-53
2022/07/05 06:37:00;;;;;;;2.05;0.47;;;;;;;16.97;100.00;98778.38;15282280;19;20026;-52
2022/07/05 06:42:06;;;;;;;3.08;0.63;;;;;;;17.13;100.00;98775.38;15287211;19;20015;-56
2022/07/05 06:47:14;;;;;;;1.70;0.52;;;;;;;17.28;100.00;98774.47;15284145;19;20015;-55
2022/07/05 06:52:20;;;;;;;1.63;0.60;;;;;;;17.51;100.00;98775.09;15287412;19;20116;-56
2022/07/05 06:57:26;;;;;;;3.92;0.70;;;;;;;17.76;100.00;98769.19;15274951;19;20023;-53
2022/07/05 07:02:38;;;;;;;4.97;0.80;;;;;;;18.14;100.00;98768.81;15287229;19;20047;-57
2022/07/05 07:13:01;;;;;;;2.40;0.80;;;;;;;18.64;100.00;98767.72;15276735;19;20030;-55
2022/07/05 07:18:08;;;;;;;2.40;0.65;;;;;;;18.82;100.00;98763.59;15272599;19;20011;-56
2022/07/05 07:23:16;;;;;;;3.63;0.60;;;;;;;18.90;100.00;98766.97;15281018;19;20019;-53
2022/07/05 07:28:21;;;;;;;1.25;0.60;;;;;;;18.94;100.00;98772.91;15275736;19;20018;-52
2022/07/05 07:33:29;;;;;;;3.05;0.60;;;;;;;19.03;100.00;98768.91;15284325;19;20014;-55
2022/07/05 07:38:48;;;;;;;0.98;0.57;;;;;;;19.23;100.00;98770.81;15278713;19;20393;-54
2022/07/05 07:43:52;;;;;;;3.55;0.63;;;;;;;19.45;100.00;98765.16;15283037;19;20006;-56
2022/07/05 07:48:59;;;;;;;3.63;0.68;;;;;;;19.70;100.00;98768.09;15280537;19;20022;-54
2022/07/05 07:54:05;;;;;;;3.28;0.60;;;;;;;19.76;100.00;98774.59;15283004;19;20333;-57
2022/07/05 07:59:10;;;;;;;1.73;0.70;;;;;;;19.93;100.00;98770.41;15278637;19;20034;-53
2022/07/05 08:04:18;;;;;;;1.08;0.52;;;;;;;20.17;100.00;98770.72;15277632;19;20006;-58
2022/07/05 08:09:23;;;;;;;1.65;0.60;;;;;;;20.32;100.00;98763.13;15274960;19;20031;-55
2022/07/05 08:14:29;;;;;;;4.55;0.70;;;;;;;20.47;100.00;98768.31;15281100;19;20028;-58
2022/07/05 08:24:54;;;;;;;2.40;0.90;;;;;;;20.94;99.92;98759.03;15281110;19;20018;-52
2022/07/05 08:29:59;;;;;;;1.35;0.60;;;;;;;20.99;92.48;98761.13;15280360;19;20086;-59
2022/07/05 08:35:07;;;;;;;2.42;0.65;;;;;;;21.16;92.09;98748.56;15272733;19;20397;-52
2022/07/05 08:40:15;;;;;;;0.73;0.50;;;;;;;21.16;88.79;98756.78;15281297;19;20017;-57
2022/07/05 08:45:21;;;;;;;1.98;0.60;;;;;;;21.31;90.76;98755.63;15276650;19;20035;-59
2022/07/05 08:50:29;;;;;;;2.15;0.70;;;;;;;21.31;84.35;98756.44;15282051;19;20014;-55
2022/07/05 08:55:35;;;;;;;1.60;0.50;;;;;;;21.33;84.29;98750.75;15277968;19;20034;-52
2022/07/05 09:00:42;;;;;;;1.70;0.43;;;;;;;21.30;77.76;98751.19;15280034;19;20434;-57
2022/07/05 09:05:50;;;;;;;2.70;0.50;;;;;;;21.43;76.13;98744.75;15271755;19;20025;-52
2022/07/05 09:10:55;;;;;;;1.60;0.50;;;;;;;21.68;72.49;98745.63;15279895;19;20006;-55
2022/07/05 09:16:01;;;;;;;5.30;0.50;;;;;;;21.83;65.95;98744.41;15271007;19;20039;-56
2022/07/05 09:21:21;;;;;;;1.35;0.43;;;;;;;22.04;65.32;98740.41;15279100;19;20085;-56
2022/07/05 09:26:34;;;;;;;0.97;0.47;;;;;;;22.26;63.42;98739.94;15273082;19;20026;-56
2022/07/05 09:31:41;;;;;;;1.63;0.45;;;;;;;22.54;63.77;98741.28;15279585;19;20508;-52
2022/07/05 09:36:54;;;;;;;0.77;0.38;;;;;;;22.66;63.12;98744.09;15269451;19;20026;-58
2022/07/05 09:42:17;;;;;;;1.00;0.50;;;;;;;22.73;60.49;98745.69;15285548;19;20015;-57
2022/07/05 09:47:24;;;;;;;2.85;0.50;;;;;;;22.74;58.91;98733.63;15281155;19;20401;-57
2022/07/05 09:52:34;;;;;;;1.00;0.40;;;;;;;22.83;57.51;98741.53;15292818;19;20121;-56
2022/07/05 09:57:41;;;;;;;1.92;0.40;;;;;;;23.04;56.13;98741.00;15286546;19;20031;-54
2022/07/05 10:02:48;;;;;;;0.93;0.40;;;;;;;23.13;55.65;98729.66;15292552;19;20042;-53
2022/07/05 10:07:59;;;;;;;0.70;0.40;;;;;;;23.31;56.24;98721.38;15287337;19;20018;-52
2022/07/05 10:13:06;;;;;;;3.20;0.55;;;;;;;23.45;56.39;98729.38;15283691;19;20015;-57
2022/07/05 10:18:14;;;;;;;4.93;0.45;;;;;;;23.47;55.39;98735.47;15280751;19;20021;-53
2022/07/05 10:23:22;;;;;;;2.75;0.68;;;;;;;23.31;57.54;98726.88;15290320;19;20103;-56
2022/07/05 10:28:28;;;;;;;1.88;0.50;;;;;;;23.54;56.71;98731.53;15285725;19;20014;-54
2022/07/05 10:33:34;;;;;;;1.50;0.60;;;;;;;23.52;55.72;98728.16;15289398;19;20022;-57
2022/07/05 10:38:44;;;;;;;1.55;0.50;;;;;;;23.63;53.57;98728.44;15284544;19;20039;-55
2022/07/05 10:43:55;;;;;;;1.05;0.40;;;;;;;23.77;52.35;98734.53;15281886;19;20349;-54
2022/07/05 10:49:12;;;;;;;1.10;0.55;;;;;;;23.92;52.86;98726.63;15283491;19;20010;-51
2022/07/05 10:54:20;;;;;;;3.22;0.50;;;;;;;24.16;52.31;98718.34;15279088;19;20042;-56
2022/07/05 10:59:25;;;;;;;1.50;0.52;;;;;;;24.47;49.84;98727.22;15282812;19;20030;-53
2022/07/05 11:04:38;;;;;;;3.22;0.60;;;;;;;24.52;48.78;98708.03;15285866;19;20030;-55
2022/07/05 11:10:03;;;;;;;1.13;0.50;;;;;;;24.32;48.19;98705.75;15285670;19;20010;-52
2022/07/05 11:15:11;;;;;;;1.73;0.50;;;;;;;24.52;49.10;98710.78;15278254;19;20366;-57
2022/07/05 11:20:21;;;;;;;2.15;0.50;;;;;;;24.55;48.17;98715.81;15286146;19;20018;-55
2022/07/05 11:25:31;;;;;;;3.40;0.50;;;;;;;24.45;46.85;98718.38;15279698;19;20039;-57
2022/07/05 11:30:56;;;;;;;0.77;0.40;;;;;;;24.68;47.08;98706.44;15282689;19;20014;-54
2022/07/05 11:41:41;;;;;;;0.75;0.40;;;;;;;24.62;47.35;98697.25;15284265;19;20038;-52
2022/07/05 11:46:46;;;;;;;2.03;0.40;;;;;;;24.62;46.53;98697.25;15276611;19;20011;-53
2022/07/05 11:52:01;;;;;;;0.95;0.40;;;;;;;25.18;47.42;98696.56;15282888;19;20389;-51
2022/07/05 11:57:13;;;;;;;2.55;0.50;;;;;;;25.07;46.29;98697.50;15278007;19;20022;-56
2022/07/05 12:02:18;;;;;;;0.95;0.50;;;;;;;25.14;45.86;98680.78;15282215;19;20010;-55
2022/07/05 12:07:29;;;;;;;1.80;0.40;;;;;;;25.42;45.62;98679.03;15281770;19;20034;-54
2022/07/05 12:12:47;;;;;;;3.00;0.60;;;;;;;25.57;45.74;98667.41;15282606;19;20039;-53
2022/07/05 12:17:54;;;;;;;3.13;0.45;;;;;;;25.03;46.43;98666.00;15273014;19;20034;-57
2022/07/05 12:23:00;;;;;;;2.70;0.40;;;;;;;24.83;46.67;98674.75;15282921;19;20390;-55
2022/07/05 12:28:12;;;;;;;0.82;0.50;;;;;;;25.23;45.36;98666.31;15273147;19;20039;-56
2022/07/05 12:33:17;;;;;;;2.97;0.40;;;;;;;25.53;45.86;98659.63;15282644;19;20010;-55
2022/07/05 12:38:23;;;;;;;2.88;0.50;;;;;;;25.76;44.38;98651.38;15277241;19;20018;-55
2022/07/05 12:43:31;;;;;;;3.00;0.60;;;;;;;25.65;43.37;98647.66;15282797;19;20011;-56
2022/07/05 12:48:38;;;;;;;2.17;0.47;;;;;;;25.72;44.41;98648.28;15276693;19;20014;-58
2022/07/05 12:59:11;;;;;;;0.98;0.45;;;;;;;25.82;42.37;98631.88;15272315;19;20010;-56
2022/07/05 13:04:18;;;;;;;1.90;0.50;;;;;;;26.23;42.36;98627.97;15278967;19;20364;-55
2022/07/05 13:09:35;;;;;;;4.90;0.60;;;;;;;26.46;40.33;98619.38;15275564;19;20014;-55
2022/07/05 13:14:45;;;;;;;0.63;0.40;;;;;;;26.25;40.28;98628.56;15277578;19;20011;-56
2022/07/05 13:19:51;;;;;;;1.33;0.40;;;;;;;26.17;39.50;98613.28;15292030;19;20014;-58
2022/07/05 13:24:56;;;;;;;2.42;0.40;;;;;;;26.28;40.08;98611.47;15286596;19;20018;-55
2022/07/05 13:30:05;;;;;;;2.53;0.40;;;;;;;26.59;39.43;98623.63;15294709;19;20077;-59
2022/07/05 13:35:12;;;;;;;;;;;;;;;26.63;37.84;98623.13;15290410;19;20018;-55
2022/07/05 13:40:17;;;;;;;1.77;0.30;;;;;;;26.81;37.93;98616.41;15294030;19;19922;-57
2022/07/05 13:45:25;;;;;;;0.73;0.40;;;;;;;26.82;38.33;98605.06;15294938;19;20058;-58
2022/07/05 13:50:37;;;;;;;;;;;;;;;27.17;36.97;98623.03;15295687;19;20014;-57
2022/07/05 13:55:42;;;;;;;2.15;0.55;;;;;;;27.10;37.57;98605.84;15287787;19;19915;-55
2022/07/05 14:00:51;;;;;;;1.35;0.55;;;;;;;27.16;36.97;98604.81;15293906;19;20010;-54
2022/07/05 14:05:57;;;;;;;1.10;0.45;;;;;;;26.83;37.82;98592.09;15288281;19;20090;-58
2022/07/05 14:11:02;;;;;;;3.35;0.50;;;;;;;26.29;38.73;98596.53;15292046;19;20475;-56
2022/07/05 14:16:10;;;;;;;1.02;0.50;;;;;;;26.37;37.75;98604.38;15289225;19;20027;-54
2022/07/05 14:21:17;;;;;;;1.67;0.45;;;;;;;27.10;37.34;98599.50;15293155;19;20006;-54
2022/07/05 14:26:27;;;;;;;4.25;0.40;;;;;;;27.25;37.78;98599.59;15286131;19;20164;-56
2022/07/05 14:31:34;;;;;;;2.40;0.50;;;;;;;27.45;36.19;98590.59;15290447;19;20026;-54
2022/07/05 14:36:40;;;;;;;1.42;0.47;;;;;;;27.60;37.68;98595.38;15292522;19;20018;-57
2022/07/05 14:41:45;;;;;;;3.63;0.60;;;;;;;26.81;38.69;98591.53;15295349;19;20018;-54
2022/07/05 14:46:52;;;;;;;1.38;0.52;;;;;;;26.33;39.74;98594.94;15290520;19;20365;-55
2022/07/05 14:51:57;;;;;;;1.92;0.50;;;;;;;26.37;40.36;98590.56;15293148;19;20019;-55
2022/07/05 14:57:02;;;;;;;1.70;0.50;;;;;;;26.25;40.79;98578.84;15295277;19;20043;-55
2022/07/05 15:02:11;;;;;;;2.45;0.60;;;;;;;26.50;40.92;98582.94;15282366;19;20015;-55
2022/07/05 15:07:18;;;;;;;1.65;0.60;;;;;;;26.99;40.71;98576.47;15284146;19;20058;-52
2022/07/05 15:12:23;;;;;;;6.32;0.63;;;;;;;26.79;41.07;98577.97;15283277;19;20019;-53
2022/07/05 15:17:33;;;;;;;0.98;0.50;;;;;;;27.01;40.65;98575.09;15282845;19;20010;-50
2022/07/05 15:22:38;;;;;;;1.63;0.43;;;;;;;27.29;39.73;98570.28;15283370;19;20499;-57
2022/07/05 15:27:49;;;;;;;2.80;0.60;;;;;;;27.83;39.38;98563.66;15280922;19;20010;-56
2022/07/05 15:32:59;;;;;;;1.80;0.55;;;;;;;27.88;39.42;98573.91;15278378;19;20029;-56
2022/07/05 15:38:05;;;;;;;1.60;0.60;;;;;;;26.92;40.31;98590.50;15277741;19;20011;-58
2022/07/05 15:43:10;;;;;;;2.05;0.80;;;;;;;27.45;40.43;98574.00;15280759;19;20606;-58
2022/07/05 15:48:18;;;;;;;2.78;0.43;;;;;;;27.58;39.44;98571.84;15278242;19;20018;-57
2022/07/05 15:53:24;;;;;;;0.88;0.35;;;;;;;27.41;40.62;98588.63;15284228;19;20003;-58
2022/07/05 15:58:29;;;;;;;2.13;0.60;;;;;;;26.76;43.00;98581.22;15279585;19;20337;-57
2022/07/05 16:03:37;;;;;;;3.47;0.57;;;;;;;26.91;42.42;98583.31;15276198;19;20010;-58
2022/07/05 16:08:42;;;;;;;2.03;0.57;;;;;;;27.09;41.73;98578.47;15280060;19;20042;-57
2022/07/05 16:13:50;;;;;;;3.70;0.70;;;;;;;27.53;41.51;98569.91;15277208;19;20022;-57
2022/07/05 16:19:01;;;;;;;1.90;0.50;;;;;;;26.80;41.59;98573.28;15277318;19;20758;-57
2022/07/05 16:24:07;;;;;;;1.55;0.50;;;;;;;27.21;42.22;98568.03;15279941;19;20010;-58
2022/07/05 16:29:12;;;;;;;3.20;0.70;;;;;;;26.94;41.43;98571.72;15275064;19;20026;-57
2022/07/05 16:34:20;;;;;;;2.10;0.63;;;;;;;26.50;43.03;98574.66;15279922;19;20032;-54
2022/07/05 16:39:25;;;;;;;1.13;0.55;;;;;;;26.13;44.01;98576.22;15270122;19;20360;-55
2022/07/05 16:44:31;;;;;;;2.03;0.40;;;;;;;25.82;44.66;98575.84;15279602;19;20029;-55
2022/07/05 16:49:38;;;;;;;2.55;0.80;;;;;;;25.47;43.85;98569.63;15279451;19;20377;-54
2022/07/05 16:54:44;;;;;;;3.35;0.57;;;;;;;25.98;43.76;98565.81;15295706;19;20010;-59
2022/07/05 16:59:49;;;;;;;1.23;0.52;;;;;;;25.68;43.40;98570.72;15290960;19;20435;-56
2022/07/05 17:04:57;;;;;;;1.02;0.60;;;;;;;25.65;43.72;98568.47;15291718;19;20025;-56
2022/07/05 17:10:02;;;;;;;1.08;0.50;;;;;;;25.35;45.09;98566.09;15287509;19;20019;-54
2022/07/05 17:15:09;;;;;;;1.40;0.50;;;;;;;24.95;45.58;98580.97;15291980;19;20015;-57
2022/07/05 17:20:16;;;;;;;2.70;0.60;;;;;;;24.72;45.97;98580.06;15285048;19;20368;-59
2022/07/05 17:25:21;;;;;;;2.42;0.60;;;;;;;25.08;45.99;98583.38;15289254;19;20010;-56
2022/07/05 17:30:27;;;;;;;2.05;0.60;;;;;;;25.30;46.83;98577.91;15288336;19;20014;-56
2022/07/05 17:35:34;;;;;;;2.25;0.50;;;;;;;25.45;46.84;98588.38;15285610;19;20022;-59
2022/07/05 17:40:40;;;;;;;2.40;0.50;;;;;;;25.53;46.38;98595.34;15281323;19;20014;-58
2022/07/05 17:45:45;;;;;;;3.22;0.70;;;;;;;25.81;45.80;98591.56;15291507;19;20688;-58
2022/07/05 17:50:53;;;;;;;2.13;0.50;;;;;;;25.58;46.04;98591.84;15286199;19;20010;-59
2022/07/05 17:55:58;;;;;;;1.27;0.57;;;;;;;25.92;46.87;98597.22;15290562;19;20026;-58
2022/07/05 18:01:04;;;;;;;2.13;0.70;;;;;;;25.60;48.47;98614.47;15289554;19;20002;-57
2022/07/05 18:06:13;;;;;;;6.20;0.70;;;;;;;25.20;49.45;98611.69;15289325;19;20014;-56
2022/07/05 18:11:18;;;;;;;1.70;0.57;;;;;;;24.52;50.53;98619.91;15287487;19;20690;-56
2022/07/05 18:16:23;;;;;;;2.40;0.60;;;;;;;24.39;51.25;98614.72;15277823;19;20038;-55
2022/07/05 18:21:31;;;;;;;2.15;0.60;;;;;;;24.27;51.19;98617.53;15285558;19;20015;-57
2022/07/05 18:26:37;;;;;;;5.47;0.60;;;;;;;23.84;52.00;98631.53;15288405;19;20369;-56
2022/07/05 18:32:02;;;;;;;3.58;0.80;;;;;;;23.39;53.30;98645.94;15289606;19;20464;-56
2022/07/05 18:37:09;;;;;;;4.25;0.50;;;;;;;22.97;54.67;98641.34;15286710;19;20035;-55
2022/07/05 18:42:15;;;;;;;2.80;0.50;;;;;;;22.75;53.69;98658.41;15284200;19;20010;-54
2022/07/05 18:47:20;;;;;;;2.08;0.50;;;;;;;22.37;53.22;98654.06;15278581;19;20128;-57
2022/07/05 18:52:28;;;;;;;0.80;0.50;;;;;;;22.02;53.44;98671.19;15285083;19;20387;-53
2022/07/05 18:57:33;;;;;;;2.08;0.50;;;;;;;21.79;53.51;98661.75;15280005;19;20035;-55
2022/07/05 19:02:39;;;;;;;4.18;0.60;;;;;;;21.54;53.59;98670.00;15287496;19;20014;-57
2022/07/05 19:18:23;;;;;;;4.07;0.50;;;;;;;20.98;54.51;98678.09;15270311;19;20038;-58
2022/07/05 19:23:31;;;;;;;1.55;0.50;;;;;;;20.89;54.07;98685.75;15287950;19;20010;-54
2022/07/05 19:28:36;;;;;;;0.73;0.40;;;;;;;20.72;54.77;98695.53;15273982;19;20400;-52
2022/07/05 19:33:43;;;;;;;2.33;0.50;;;;;;;20.54;55.04;98716.28;15286194;19;20023;-55
2022/07/05 19:38:59;;;;;;;3.40;0.70;;;;;;;20.48;55.05;98719.91;15352542;19;20045;-55
2022/07/05 19:44:05;;;;;;;3.60;0.60;;;;;;;20.35;55.81;98718.03;15358660;19;20019;-54
2022/07/05 19:49:11;;;;;;;0.85;0.40;;;;;;;20.28;56.20;98718.09;15344885;19;20045;-55
2022/07/05 19:54:18;;;;;;;2.58;0.50;;;;;;;20.14;56.95;98728.25;15355719;19;20045;-57
2022/07/05 19:59:24;;;;;;;2.50;0.47;;;;;;;20.12;57.46;98733.09;15324372;19;20431;-55
2022/07/05 20:04:32;;;;;;;2.35;0.60;;;;;;;19.93;58.66;98766.81;15353402;19;20014;-56
2022/07/05 20:09:40;;;;;;;5.25;0.73;;;;;;;19.49;88.82;98774.59;15355853;19;20002;-54
2022/07/05 20:14:45;;;;;;;1.85;0.57;;;;;;;19.01;100.00;98773.72;15354266;19;20401;-57
2022/07/05 20:19:51;;;;;;;6.05;0.85;;;;;;;18.70;100.00;98769.66;15354317;19;20479;-52
2022/07/05 20:25:00;;;;;;;2.53;0.60;;;;;;;18.53;100.00;98777.38;15347313;19;20042;-55
2022/07/05 20:30:07;;;;;;;4.68;0.60;;;;;;;18.43;100.00;98777.75;15354055;19;20018;-56
2022/07/05 20:35:12;;;;;;;7.15;0.70;;;;;;;18.37;100.00;98784.03;15346286;19;20022;-56
2022/07/05 20:40:20;;;;;;;11.18;0.98;;;;;;;18.28;100.00;98796.16;15351506;19;20026;-55
2022/07/05 20:45:25;;;;;;;4.00;0.60;;;;;;;18.21;100.00;98798.84;14833043;19;10001341;-57
2022/07/05 20:50:30;;;;;;;4.15;0.70;;;;;;;18.16;100.00;98806.78;15287205;19;20276;-51
2022/07/05 20:55:38;;;;;;;5.03;0.80;;;;;;;17.95;100.00;98815.84;15281342;19;20082;-55
2022/07/05 21:00:43;;;;;;;3.97;0.70;;;;;;;17.98;100.00;98813.63;15290424;19;20023;-56
2022/07/05 21:05:48;;;;;;;2.85;0.70;;;;;;;17.85;100.00;98817.03;15286867;19;20011;-51
2022/07/05 21:10:57;;;;;;;4.43;0.80;;;;;;;17.79;100.00;98817.84;15290750;19;20014;-52
2022/07/05 21:16:02;;;;;;;6.68;0.95;;;;;;;17.78;100.00;98816.16;15289317;19;20030;-52
2022/07/05 21:21:07;;;;;;;1.85;0.80;;;;;;;17.63;100.00;98821.72;15291692;19;20622;-51
2022/07/05 21:26:15;;;;;;;2.17;0.68;;;;;;;17.44;100.00;98814.19;15281535;19;20037;-56
2022/07/05 21:31:20;;;;;;;1.98;0.63;;;;;;;17.39;100.00;98817.50;15286179;19;20010;-56
2022/07/05 21:36:25;;;;;;;5.13;0.80;;;;;;;17.36;100.00;98813.31;15281892;19;20021;-55
2022/07/05 21:41:33;;;;;;;2.72;0.55;;;;;;;17.34;100.00;98817.28;15288508;19;20014;-58
2022/07/05 21:46:38;;;;;;;4.88;0.73;;;;;;;17.30;100.00;98830.41;15288214;19;20011;-55
2022/07/05 21:51:44;;;;;;;3.95;0.90;;;;;;;17.19;100.00;98826.34;15289149;19;20014;-57
2022/07/05 21:56:51;;;;;;;3.85;0.82;;;;;;;17.13;100.00;98820.84;15286992;19;20031;-57
2022/07/05 22:07:17;;;;;;;2.50;0.55;;;;;;;16.94;100.00;98818.56;15284061;19;20384;-52
2022/07/05 22:12:24;;;;;;;2.22;0.40;;;;;;;16.87;100.00;98823.06;15283626;19;20025;-56
2022/07/05 22:17:29;;;;;;;0.80;0.40;;;;;;;16.82;100.00;98811.91;15282548;19;20495;-56
2022/07/05 22:22:34;;;;;;;5.22;1.00;;;;;;;16.69;100.00;98825.34;15287309;19;20010;-53
2022/07/05 22:27:42;;;;;;;4.15;0.70;;;;;;;16.63;100.00;98846.00;15285034;19;20014;-57
2022/07/05 22:32:50;;;;;;;2.63;0.73;;;;;;;16.61;100.00;98851.63;15279991;19;20006;-56
2022/07/05 22:37:55;;;;;;;2.88;0.80;;;;;;;16.53;100.00;98854.44;15280789;19;20023;-54
2022/07/05 22:43:03;;;;;;;4.43;0.80;;;;;;;16.52;100.00;98858.22;15279672;19;20010;-56
2022/07/05 22:48:09;;;;;;;1.63;0.68;;;;;;;16.49;100.00;98861.31;15278229;19;20018;-51
2022/07/05 22:53:14;;;;;;;2.25;0.80;;;;;;;16.34;100.00;98850.44;15286996;19;20014;-54
2022/07/05 22:58:21;;;;;;;3.35;0.80;;;;;;;16.34;100.00;98850.44;15279916;19;20017;-56
2022/07/05 23:03:27;;;;;;;5.90;0.77;;;;;;;16.31;100.00;98843.47;15278887;19;20018;-57
2022/07/05 23:08:33;;;;;;;1.40;0.70;;;;;;;16.35;100.00;98824.91;15280649;19;20482;-55
2022/07/05 23:13:42;;;;;;;2.55;0.70;;;;;;;16.25;100.00;98841.53;15279760;19;20030;-51
2022/07/05 23:18:47;;;;;;;1.70;0.60;;;;;;;16.21;100.00;98845.66;15279684;19;20021;-52
2022/07/05 23:29:12;;;;;;;5.28;0.65;;;;;;;16.10;100.00;98848.84;15276679;19;20506;-52
2022/07/05 23:34:17;;;;;;;2.42;0.70;;;;;;;16.08;100.00;98856.31;15281191;19;20019;-53
2022/07/05 23:39:22;;;;;;;4.40;0.70;;;;;;;16.02;100.00;98856.06;15274018;19;20376;-56
2022/07/05 23:44:30;;;;;;;2.75;0.80;;;;;;;15.98;100.00;98856.63;15278075;19;20018;-53
2022/07/05 23:49:35;;;;;;;2.45;0.70;;;;;;;15.95;100.00;98863.25;15278270;19;20011;-51
2022/07/05 23:54:40;;;;;;;3.03;0.70;;;;;;;15.94;100.00;98850.69;15281251;19;20013;-52
2022/07/05 23:59:48;;;;;;;1.67;0.52;;;;;;;15.94;100.00;98849.84;15278136;19;20566;-51
